createdAt,value
2022-10-09T00:01:21.401Z,12.59
2022-10-09T00:03:50.462Z,12.61
2022-10-09T00:06:22.974Z,12.75
2022-10-09T00:08:50.543Z,12.54
2022-10-09T00:11:23.301Z,12.56
2022-10-09T00:13:50.683Z,12.41
2022-10-09T00:16:18.688Z,12.53
2022-10-09T00:18:46.336Z,12.38
2022-10-09T00:21:30.694Z,12.25
2022-10-09T00:24:00.142Z,12.47
2022-10-09T00:26:27.702Z,12.40
2022-10-09T00:28:55.125Z,12.26
2022-10-09T00:31:22.253Z,12.16
2022-10-09T00:33:49.088Z,12.29
2022-10-09T00:36:20.204Z,12.21
2022-10-09T00:38:47.358Z,12.19
2022-10-09T00:41:30.103Z,12.11
2022-10-09T00:44:04.947Z,12.09
2022-10-09T00:47:01.212Z,11.88
2022-10-09T00:49:32.287Z,11.97
2022-10-09T00:52:03.340Z,11.81
2022-10-09T00:54:34.041Z,11.82
2022-10-09T00:57:00.923Z,12.00
2022-10-09T00:59:28.047Z,11.75
2022-10-09T01:01:54.865Z,11.57
2022-10-09T01:04:21.682Z,11.70
2022-10-09T01:07:12.276Z,11.86
2022-10-09T01:09:41.822Z,11.70
2022-10-09T01:12:17.356Z,11.65
2022-10-09T01:14:56.951Z,11.84
2022-10-09T01:17:41.482Z,11.76
2022-10-09T01:20:14.252Z,11.74
2022-10-09T01:22:59.521Z,11.57
2022-10-09T01:25:36.333Z,11.58
2022-10-09T01:28:06.623Z,11.71
2022-10-09T01:30:35.018Z,11.45
2022-10-09T01:33:02.401Z,11.49
2022-10-09T01:35:30.672Z,11.35
2022-10-09T01:37:58.122Z,11.46
2022-10-09T01:40:26.792Z,11.46
2022-10-09T01:42:53.821Z,11.56
2022-10-09T01:45:20.847Z,11.44
2022-10-09T01:47:47.618Z,11.29
2022-10-09T01:50:29.688Z,11.36
2022-10-09T01:53:04.084Z,11.32
2022-10-09T01:55:41.813Z,11.23
2022-10-09T01:58:20.688Z,11.39
2022-10-09T02:00:54.743Z,11.20
2022-10-09T02:03:24.529Z,11.18
2022-10-09T02:05:52.941Z,11.16
2022-10-09T02:08:22.325Z,11.15
2022-10-09T02:10:53.758Z,11.21
2022-10-09T02:13:21.065Z,11.20
2022-10-09T02:15:52.779Z,11.33
2022-10-09T02:18:26.983Z,11.16
2022-10-09T02:21:00.073Z,11.04
2022-10-09T02:23:28.714Z,10.76
2022-10-09T02:25:55.517Z,10.96
2022-10-09T02:28:22.615Z,10.93
2022-10-09T02:31:05.962Z,10.84
2022-10-09T02:33:34.403Z,10.84
2022-10-09T02:36:01.962Z,10.72
2022-10-09T02:38:29.368Z,10.67
2022-10-09T02:41:00.494Z,10.56
2022-10-09T02:43:28.100Z,10.53
2022-10-09T02:45:55.005Z,10.49
2022-10-09T02:48:21.723Z,10.36
2022-10-09T02:50:48.463Z,10.31
2022-10-09T02:53:15.176Z,10.34
2022-10-09T02:55:41.982Z,10.24
2022-10-09T02:58:08.728Z,10.31
2022-10-09T03:00:35.407Z,10.19
2022-10-09T03:03:02.128Z,10.07
2022-10-09T03:05:28.893Z,10.09
2022-10-09T03:07:55.578Z,9.98
2022-10-09T03:10:22.428Z,10.02
2022-10-09T03:12:49.389Z,9.88
2022-10-09T03:15:16.897Z,9.79
2022-10-09T03:17:43.592Z,9.72
2022-10-09T03:20:10.522Z,9.61
2022-10-09T03:22:37.221Z,9.46
2022-10-09T03:25:04.163Z,9.37
2022-10-09T03:27:31.042Z,9.47
2022-10-09T03:29:58.782Z,9.40
2022-10-09T03:32:25.822Z,9.30
2022-10-09T03:34:52.811Z,9.30
2022-10-09T03:37:19.569Z,9.27
2022-10-09T03:39:46.508Z,9.06
2022-10-09T03:42:13.562Z,8.98
2022-10-09T03:44:40.262Z,8.96
2022-10-09T03:47:07.042Z,9.05
2022-10-09T03:49:33.742Z,8.71
2022-10-09T03:52:00.445Z,8.80
2022-10-09T03:54:27.143Z,8.83
2022-10-09T03:56:53.851Z,8.86
2022-10-09T03:59:20.506Z,8.74
2022-10-09T04:01:47.182Z,8.72
2022-10-09T04:04:13.972Z,8.94
2022-10-09T04:06:40.675Z,8.89
2022-10-09T04:09:07.392Z,8.71
2022-10-09T04:11:34.292Z,8.83
2022-10-09T04:14:01.239Z,8.85
2022-10-09T04:16:28.035Z,8.87
2022-10-09T04:18:54.704Z,8.79
2022-10-09T04:21:21.452Z,8.81
2022-10-09T04:23:48.143Z,8.82
2022-10-09T04:26:14.798Z,8.75
2022-10-09T04:28:41.597Z,8.56
2022-10-09T04:31:08.551Z,8.68
2022-10-09T04:33:35.353Z,8.71
2022-10-09T04:36:02.053Z,8.62
2022-10-09T04:38:31.079Z,8.67
2022-10-09T04:40:59.004Z,8.68
2022-10-09T04:43:26.152Z,8.59
2022-10-09T04:45:53.072Z,8.58
2022-10-09T04:48:20.636Z,8.69
2022-10-09T04:50:47.401Z,8.69
2022-10-09T04:53:14.984Z,8.71
2022-10-09T04:55:45.039Z,8.71
2022-10-09T04:58:13.742Z,8.73
2022-10-09T05:00:45.835Z,8.62
2022-10-09T05:03:13.091Z,8.54
2022-10-09T05:05:40.031Z,8.52
2022-10-09T05:08:06.808Z,8.51
2022-10-09T05:10:33.531Z,8.48
2022-10-09T05:13:00.604Z,8.41
2022-10-09T05:15:27.543Z,8.33
2022-10-09T05:17:54.321Z,8.27
2022-10-09T05:20:21.037Z,8.13
2022-10-09T05:22:48.349Z,8.09
2022-10-09T05:25:15.663Z,8.07
2022-10-09T05:27:42.322Z,7.89
2022-10-09T05:30:09.777Z,7.86
2022-10-09T05:32:36.765Z,8.00
2022-10-09T05:35:04.540Z,8.11
2022-10-09T05:37:31.384Z,8.02
2022-10-09T05:39:58.101Z,7.89
2022-10-09T05:42:24.882Z,7.66
2022-10-09T05:44:51.612Z,7.79
2022-10-09T05:47:19.812Z,7.60
2022-10-09T05:49:46.875Z,7.73
2022-10-09T05:52:13.750Z,7.61
2022-10-09T05:54:42.041Z,7.72
2022-10-09T05:57:10.022Z,7.65
2022-10-09T05:59:36.756Z,7.68
2022-10-09T06:02:04.031Z,7.66
2022-10-09T06:04:30.768Z,7.59
2022-10-09T06:06:57.542Z,7.56
2022-10-09T06:09:25.873Z,7.65
2022-10-09T06:11:54.114Z,7.59
2022-10-09T06:14:22.341Z,7.65
2022-10-09T06:16:49.940Z,7.68
2022-10-09T06:19:18.406Z,7.68
2022-10-09T06:21:45.602Z,7.63
2022-10-09T06:24:32.593Z,7.62
2022-10-09T06:26:59.350Z,7.60
2022-10-09T06:29:26.670Z,7.52
2022-10-09T06:31:53.592Z,7.68
2022-10-09T06:34:20.412Z,7.65
2022-10-09T06:36:47.128Z,7.62
2022-10-09T06:39:13.910Z,7.59
2022-10-09T06:41:40.793Z,7.67
2022-10-09T06:44:15.315Z,7.78
2022-10-09T06:46:45.469Z,7.74
2022-10-09T06:49:12.706Z,7.67
2022-10-09T06:51:39.898Z,7.73
2022-10-09T06:54:12.920Z,7.71
2022-10-09T06:56:39.708Z,7.81
2022-10-09T06:59:07.853Z,7.83
2022-10-09T07:01:35.271Z,7.94
2022-10-09T07:04:07.712Z,7.94
2022-10-09T07:06:38.695Z,8.05
2022-10-09T07:09:08.132Z,8.03
2022-10-09T07:11:37.608Z,8.10
2022-10-09T07:14:06.499Z,8.28
2022-10-09T07:16:36.077Z,8.14
2022-10-09T07:19:07.558Z,8.12
2022-10-09T07:21:35.205Z,8.07
2022-10-09T07:24:03.136Z,8.25
2022-10-09T07:26:32.005Z,8.34
2022-10-09T07:28:59.216Z,8.61
2022-10-09T07:31:26.489Z,8.59
2022-10-09T07:33:55.548Z,8.66
2022-10-09T07:36:22.556Z,8.82
2022-10-09T07:38:51.709Z,8.90
2022-10-09T07:41:19.863Z,8.94
2022-10-09T07:43:46.700Z,9.09
2022-10-09T07:46:16.776Z,9.43
2022-10-09T07:48:44.126Z,9.74
2022-10-09T07:51:17.906Z,10.03
2022-10-09T07:53:45.922Z,10.39
2022-10-09T07:56:18.293Z,10.73
2022-10-09T07:58:52.302Z,11.15
2022-10-09T08:01:20.969Z,11.52
2022-10-09T08:03:48.976Z,11.76
2022-10-09T08:06:16.232Z,12.03
2022-10-09T08:08:43.866Z,12.43
2022-10-09T08:11:12.641Z,12.55
2022-10-09T08:13:40.129Z,12.98
2022-10-09T08:16:07.603Z,13.01
2022-10-09T08:18:35.556Z,13.35
2022-10-09T08:21:08.282Z,13.57
2022-10-09T08:23:35.414Z,13.71
2022-10-09T08:26:02.208Z,13.69
2022-10-09T08:28:29.041Z,13.72
2022-10-09T08:30:55.886Z,13.85
2022-10-09T08:33:25.086Z,13.96
2022-10-09T08:35:53.252Z,14.08
2022-10-09T08:38:45.687Z,14.35
2022-10-09T08:41:28.987Z,14.81
2022-10-09T08:44:13.219Z,15.07
2022-10-09T08:47:11.868Z,15.09
2022-10-09T08:49:43.041Z,14.59
2022-10-09T08:52:24.564Z,14.60
2022-10-09T08:54:54.091Z,15.06
2022-10-09T08:57:22.047Z,15.14
2022-10-09T08:59:48.872Z,15.04
2022-10-09T09:02:32.457Z,15.46
2022-10-09T09:05:18.852Z,15.82
2022-10-09T09:08:02.854Z,15.31
2022-10-09T09:10:41.557Z,14.92
2022-10-09T09:13:31.101Z,15.08
2022-10-09T09:16:23.194Z,14.97
2022-10-09T09:19:13.258Z,14.80
2022-10-09T09:21:53.840Z,14.94
2022-10-09T09:24:31.742Z,15.05
2022-10-09T09:27:03.815Z,15.17
2022-10-09T09:29:35.894Z,15.27
2022-10-09T09:32:02.972Z,14.59
2022-10-09T09:34:39.123Z,14.37
2022-10-09T09:37:05.950Z,14.60
2022-10-09T09:40:24.318Z,14.55
2022-10-09T09:42:21.990Z,15.15
2022-10-09T09:45:00.350Z,15.00
2022-10-09T09:47:34.607Z,14.94
2022-10-09T09:50:03.600Z,15.19
2022-10-09T09:52:35.944Z,15.19
2022-10-09T09:55:04.364Z,15.45
2022-10-09T09:57:39.739Z,15.10
2022-10-09T10:00:08.802Z,15.30
2022-10-09T10:02:35.523Z,15.58
2022-10-09T10:05:15.778Z,15.52
2022-10-09T10:07:42.498Z,14.87
2022-10-09T10:10:25.015Z,15.27
2022-10-09T10:12:52.766Z,15.04
2022-10-09T10:15:29.503Z,14.80
2022-10-09T10:18:03.252Z,14.94
2022-10-09T10:20:32.996Z,15.10
2022-10-09T10:23:00.798Z,15.02
2022-10-09T10:25:34.183Z,14.83
2022-10-09T10:28:08.681Z,14.92
2022-10-09T10:30:37.894Z,14.87
2022-10-09T10:33:24.999Z,14.67
2022-10-09T10:35:54.145Z,14.76
2022-10-09T10:38:43.744Z,14.90
2022-10-09T10:41:19.212Z,14.54
2022-10-09T10:43:51.509Z,14.39
2022-10-09T10:46:26.087Z,14.24
2022-10-09T10:48:53.524Z,14.20
2022-10-09T10:51:35.298Z,14.36
2022-10-09T10:54:32.302Z,14.54
2022-10-09T10:57:15.107Z,14.65
2022-10-09T10:59:57.216Z,14.54
2022-10-09T11:02:47.708Z,14.51
2022-10-09T11:05:23.634Z,14.59
2022-10-09T11:08:12.202Z,14.89
2022-10-09T11:10:50.541Z,14.69
2022-10-09T11:13:20.265Z,14.90
2022-10-09T11:15:46.873Z,14.90
2022-10-09T11:18:41.148Z,14.52
2022-10-09T11:21:34.401Z,14.55
2022-10-09T11:24:27.337Z,14.35
2022-10-09T11:27:21.075Z,14.64
2022-10-09T11:29:58.177Z,14.72
2022-10-09T11:32:36.737Z,14.80
2022-10-09T11:35:12.993Z,14.81
2022-10-09T11:37:43.352Z,14.83
2022-10-09T11:40:24.789Z,15.01
2022-10-09T11:43:35.563Z,14.99
2022-10-09T11:46:16.092Z,15.01
2022-10-09T11:49:08.113Z,14.89
2022-10-09T11:51:44.044Z,15.04
2022-10-09T11:54:16.495Z,15.04
2022-10-09T11:56:56.273Z,14.90
2022-10-09T11:59:30.699Z,14.85
2022-10-09T12:02:00.347Z,14.83
2022-10-09T12:04:53.942Z,14.88
2022-10-09T12:07:36.906Z,14.85
2022-10-09T12:10:21.079Z,14.94
2022-10-09T12:13:00.457Z,14.93
2022-10-09T12:15:36.582Z,15.03
2022-10-09T12:18:16.913Z,14.84
2022-10-09T12:20:48.093Z,14.89
2022-10-09T12:23:27.468Z,14.82
2022-10-09T12:25:56.401Z,14.63
2022-10-09T12:28:39.718Z,15.06
2022-10-09T12:31:18.795Z,14.86
2022-10-09T12:33:51.884Z,14.82
2022-10-09T12:36:26.877Z,14.94
2022-10-09T12:38:54.276Z,14.78
2022-10-09T12:41:29.345Z,14.79
2022-10-09T12:43:58.592Z,14.88
2022-10-09T12:46:43.743Z,14.99
2022-10-09T12:49:24.993Z,15.01
2022-10-09T12:51:56.375Z,15.10
2022-10-09T12:54:25.334Z,15.08
2022-10-09T12:56:54.888Z,15.30
2022-10-09T12:59:24.893Z,15.48
2022-10-09T13:01:57.433Z,15.51
2022-10-09T13:04:34.393Z,15.69
2022-10-09T13:07:06.779Z,15.81
2022-10-09T13:09:39.953Z,15.76
2022-10-09T13:12:14.499Z,15.63
2022-10-09T13:14:46.908Z,15.71
2022-10-09T13:17:34.016Z,15.67
2022-10-09T13:20:22.414Z,15.73
2022-10-09T13:23:03.063Z,15.72
2022-10-09T13:25:38.106Z,15.70
2022-10-09T13:28:05.787Z,15.90
2022-10-09T13:30:33.279Z,15.93
2022-10-09T13:33:00.063Z,16.09
2022-10-09T13:35:26.904Z,16.29
2022-10-09T13:37:53.741Z,16.50
2022-10-09T13:40:22.105Z,16.45
2022-10-09T13:42:59.942Z,16.42
2022-10-09T13:45:26.902Z,16.63
2022-10-09T13:47:53.692Z,16.71
2022-10-09T13:50:20.506Z,16.62
2022-10-09T13:52:47.428Z,16.24
2022-10-09T13:55:14.982Z,16.19
2022-10-09T13:57:41.824Z,16.03
2022-10-09T14:00:09.198Z,15.95
2022-10-09T14:02:36.022Z,15.84
2022-10-09T14:05:02.774Z,15.75
2022-10-09T14:07:30.325Z,15.67
2022-10-09T14:09:57.615Z,15.70
2022-10-09T14:12:24.308Z,15.66
2022-10-09T14:14:52.643Z,15.51
2022-10-09T14:17:19.407Z,15.74
2022-10-09T14:19:46.142Z,15.58
2022-10-09T14:22:13.609Z,15.70
2022-10-09T14:24:40.682Z,15.42
2022-10-09T14:27:07.496Z,15.40
2022-10-09T14:29:34.260Z,15.16
2022-10-09T14:32:01.079Z,15.10
2022-10-09T14:34:27.804Z,15.09
2022-10-09T14:36:54.525Z,15.15
2022-10-09T14:39:21.594Z,14.98
2022-10-09T14:41:48.595Z,15.00
2022-10-09T14:44:15.794Z,14.94
2022-10-09T14:46:42.666Z,14.86
2022-10-09T14:49:11.322Z,15.01
2022-10-09T14:51:40.117Z,14.99
2022-10-09T14:54:08.762Z,14.91
2022-10-09T14:56:36.327Z,14.77
2022-10-09T14:59:06.119Z,14.69
2022-10-09T15:01:33.345Z,14.87
2022-10-09T15:04:01.155Z,14.89
2022-10-09T15:06:28.566Z,14.55
2022-10-09T15:09:03.093Z,14.69
2022-10-09T15:11:32.276Z,14.46
2022-10-09T15:13:59.212Z,14.50
2022-10-09T15:16:26.653Z,14.31
2022-10-09T15:18:55.007Z,14.30
2022-10-09T15:21:25.653Z,14.08
2022-10-09T15:23:57.110Z,14.01
2022-10-09T15:26:25.356Z,13.86
2022-10-09T15:28:52.310Z,13.79
2022-10-09T15:31:23.362Z,13.40
2022-10-09T15:33:55.113Z,13.66
2022-10-09T15:36:22.616Z,13.57
2022-10-09T15:38:50.029Z,13.48
2022-10-09T15:41:28.393Z,13.30
2022-10-09T15:43:58.796Z,13.33
2022-10-09T15:46:26.432Z,12.99
2022-10-09T15:48:53.676Z,13.23
2022-10-09T15:51:20.520Z,13.23
2022-10-09T15:53:49.723Z,13.06
2022-10-09T15:56:22.533Z,13.01
2022-10-09T15:58:49.795Z,12.82
2022-10-09T16:01:17.439Z,12.76
2022-10-09T16:03:45.187Z,12.66
2022-10-09T16:06:15.059Z,12.66
2022-10-09T16:08:42.088Z,12.56
2022-10-09T16:11:12.336Z,12.48
2022-10-09T16:13:41.070Z,12.45
2022-10-09T16:16:14.552Z,12.40
2022-10-09T16:18:41.556Z,12.39
2022-10-09T16:21:10.816Z,12.24
2022-10-09T16:23:37.642Z,12.13
2022-10-09T16:26:05.335Z,12.11
2022-10-09T16:28:33.527Z,11.76
2022-10-09T16:31:00.349Z,11.91
2022-10-09T16:33:27.453Z,12.00
2022-10-09T16:35:54.210Z,11.85
2022-10-09T16:38:21.339Z,11.70
2022-10-09T16:41:02.023Z,11.45
2022-10-09T16:43:29.511Z,11.39
2022-10-09T16:45:56.311Z,11.47
2022-10-09T16:48:23.972Z,11.26
2022-10-09T16:50:50.902Z,11.35
2022-10-09T16:53:21.277Z,11.15
2022-10-09T16:55:48.055Z,10.98
2022-10-09T16:58:14.828Z,11.25
2022-10-09T17:00:41.942Z,10.85
2022-10-09T17:03:10.454Z,10.91
2022-10-09T17:05:39.292Z,11.01
2022-10-09T17:08:07.207Z,10.90
2022-10-09T17:10:34.613Z,10.78
2022-10-09T17:13:01.648Z,10.62
2022-10-09T17:15:29.134Z,10.59
2022-10-09T17:17:55.886Z,10.49
2022-10-09T17:20:23.763Z,10.24
2022-10-09T17:22:51.282Z,10.25
2022-10-09T17:25:18.835Z,10.24
2022-10-09T17:27:45.587Z,10.27
2022-10-09T17:30:13.831Z,10.34
2022-10-09T17:32:40.824Z,10.15
2022-10-09T17:35:08.755Z,10.08
2022-10-09T17:37:35.978Z,10.12
2022-10-09T17:40:03.188Z,10.21
2022-10-09T17:42:30.683Z,10.20
2022-10-09T17:44:57.594Z,10.23
2022-10-09T17:47:24.987Z,10.16
2022-10-09T17:49:53.277Z,10.01
2022-10-09T17:52:22.405Z,10.01
2022-10-09T17:54:49.762Z,9.89
2022-10-09T17:57:17.356Z,9.85
2022-10-09T17:59:44.397Z,9.91
2022-10-09T18:02:12.625Z,9.94
2022-10-09T18:04:39.692Z,9.87
2022-10-09T18:07:07.845Z,9.96
2022-10-09T18:09:36.452Z,10.02
2022-10-09T18:12:04.138Z,10.15
2022-10-09T18:14:31.723Z,10.31
2022-10-09T18:17:03.273Z,10.40
2022-10-09T18:19:30.624Z,10.44
2022-10-09T18:22:00.141Z,10.60
2022-10-09T18:24:28.289Z,10.60
2022-10-09T18:26:56.282Z,10.66
2022-10-09T18:29:24.648Z,10.74
2022-10-09T18:31:55.877Z,10.86
2022-10-09T18:34:28.664Z,10.90
2022-10-09T18:36:59.555Z,10.91
2022-10-09T18:39:30.026Z,10.93
2022-10-09T18:41:59.892Z,11.04
2022-10-09T18:44:28.007Z,11.09
2022-10-09T18:47:00.637Z,11.06
2022-10-09T18:49:37.754Z,11.10
2022-10-09T18:52:13.366Z,11.04
2022-10-09T18:54:45.628Z,11.04
2022-10-09T18:57:21.739Z,10.92
2022-10-09T18:59:52.159Z,11.02
2022-10-09T19:02:22.930Z,10.79
2022-10-09T19:04:52.826Z,10.95
2022-10-09T19:07:21.400Z,11.08
2022-10-09T19:09:56.978Z,11.16
2022-10-09T19:12:27.076Z,10.98
2022-10-09T19:14:55.531Z,11.02
2022-10-09T19:17:23.318Z,10.81
2022-10-09T19:19:53.687Z,10.96
2022-10-09T19:22:24.088Z,10.75
2022-10-09T19:24:52.370Z,10.86
2022-10-09T19:27:24.496Z,10.74
2022-10-09T19:29:55.582Z,10.90
2022-10-09T19:32:25.254Z,10.92
2022-10-09T19:34:53.464Z,10.93
2022-10-09T19:37:27.388Z,10.83
2022-10-09T19:39:56.880Z,10.75
2022-10-09T19:42:25.598Z,10.79
2022-10-09T19:44:53.376Z,10.77
2022-10-09T19:47:22.336Z,10.62
2022-10-09T19:49:50.101Z,10.78
2022-10-09T19:52:17.321Z,10.55
2022-10-09T19:54:44.306Z,10.45
2022-10-09T19:57:11.261Z,10.74
2022-10-09T19:59:38.318Z,10.66
2022-10-09T20:02:05.371Z,10.64
2022-10-09T20:04:32.522Z,10.58
2022-10-09T20:07:00.351Z,10.60
2022-10-09T20:09:28.082Z,10.57
2022-10-09T20:11:55.161Z,10.41
2022-10-09T20:14:22.009Z,10.42
2022-10-09T20:16:49.034Z,10.52
2022-10-09T20:19:15.924Z,10.54
2022-10-09T20:21:42.784Z,10.47
2022-10-09T20:24:09.867Z,10.65
2022-10-09T20:26:40.908Z,10.62
2022-10-09T20:29:09.614Z,10.67
2022-10-09T20:31:36.304Z,10.66
2022-10-09T20:34:03.449Z,10.63
2022-10-09T20:36:37.736Z,10.57
2022-10-09T20:39:12.389Z,10.50
2022-10-09T20:41:40.182Z,10.58
2022-10-09T20:44:07.232Z,10.46
2022-10-09T20:46:36.180Z,10.49
2022-10-09T20:49:05.173Z,10.54
2022-10-09T20:51:34.804Z,10.40
2022-10-09T20:54:01.663Z,10.41
2022-10-09T20:56:31.462Z,10.34
2022-10-09T20:58:59.769Z,10.22
2022-10-09T21:01:28.541Z,10.31
2022-10-09T21:03:59.437Z,10.37
2022-10-09T21:06:26.879Z,10.44
2022-10-09T21:08:53.588Z,10.30
2022-10-09T21:11:20.822Z,10.38
2022-10-09T21:13:49.111Z,10.37
2022-10-09T21:16:19.123Z,10.20
2022-10-09T21:18:45.872Z,10.23
2022-10-09T21:21:16.679Z,10.19
2022-10-09T21:23:45.324Z,10.14
2022-10-09T21:26:15.028Z,9.98
2022-10-09T21:28:42.508Z,10.01
2022-10-09T21:31:20.981Z,10.08
2022-10-09T21:33:47.757Z,9.80
2022-10-09T21:36:51.207Z,9.78
2022-10-09T21:39:26.569Z,9.45
2022-10-09T21:41:53.212Z,9.55
2022-10-09T21:44:20.019Z,9.41
2022-10-09T21:46:46.842Z,9.41
2022-10-09T21:49:25.087Z,9.45
2022-10-09T21:51:52.372Z,9.44
2022-10-09T21:54:20.424Z,9.35
2022-10-09T21:56:47.196Z,9.27
2022-10-09T21:59:14.052Z,9.38
2022-10-09T22:01:40.786Z,9.33
2022-10-09T22:04:07.557Z,9.43
2022-10-09T22:06:34.242Z,9.21
2022-10-09T22:09:00.967Z,9.25
2022-10-09T22:11:27.690Z,9.23
2022-10-09T22:13:55.904Z,9.06
2022-10-09T22:16:22.863Z,9.25
2022-10-09T22:18:49.550Z,9.27
2022-10-09T22:21:18.492Z,9.22
2022-10-09T22:23:45.342Z,9.12
2022-10-09T22:26:17.156Z,9.26
2022-10-09T22:28:45.311Z,9.18
2022-10-09T22:31:18.643Z,8.91
2022-10-09T22:33:50.832Z,8.93
2022-10-09T22:36:19.362Z,8.60
2022-10-09T22:38:46.112Z,8.45
2022-10-09T22:41:17.945Z,8.24
2022-10-09T22:43:46.973Z,8.46
2022-10-09T22:46:17.257Z,8.32
2022-10-09T22:48:44.745Z,8.28
2022-10-09T22:51:14.632Z,8.04
2022-10-09T22:53:42.625Z,8.11
2022-10-09T22:56:13.137Z,8.18
2022-10-09T22:58:39.981Z,8.07
2022-10-09T23:03:35.892Z,7.93
2022-10-09T23:06:17.829Z,7.98
2022-10-09T23:08:47.057Z,7.89
2022-10-09T23:11:14.781Z,7.80
2022-10-09T23:13:41.562Z,7.73
2022-10-09T23:16:10.893Z,7.73
2022-10-09T23:18:38.934Z,7.83
2022-10-09T23:21:07.879Z,7.79
2022-10-09T23:23:34.733Z,7.65
2022-10-09T23:26:05.392Z,7.77
2022-10-09T23:28:32.660Z,7.67
2022-10-09T23:31:08.424Z,7.58
2022-10-09T23:33:35.720Z,7.71
2022-10-09T23:36:03.459Z,7.72
2022-10-09T23:38:30.474Z,7.59
2022-10-09T23:41:02.854Z,7.71
2022-10-09T23:43:31.152Z,7.62
2022-10-09T23:46:01.168Z,7.66
2022-10-09T23:48:27.962Z,7.77
2022-10-09T23:50:55.293Z,7.84
2022-10-09T23:53:23.810Z,7.95
2022-10-09T23:55:50.523Z,8.02
2022-10-09T23:58:20.669Z,8.09
